Time;durP1;ratioP1;P1;durP2;ratioP2;P2;SDS_P1;SDS_P2;PMS_P1;PMS_P2;Temp;Humidity;BMP_temperature;BMP_pressure;BME280_temperature;BME280_humidity;BME280_pressure;Samples;Min_cycle;Max_cycle;Signal;HPM_P1;HPM_P2
2022/09/13 00:00:49;;;;;;;4.75;1.35;;;12.00;99.90;;;;;;4994425;28;20026;-73
2022/09/13 00:03:15;;;;;;;9.30;1.45;;;11.90;99.90;;;;;;4994184;28;20037;-73
2022/09/13 00:05:42;;;;;;;8.77;1.30;;;11.90;99.90;;;;;;4994194;28;20042;-74
2022/09/13 00:08:09;;;;;;;5.40;1.50;;;11.90;99.90;;;;;;4994121;28;20031;-74
2022/09/13 00:10:37;;;;;;;5.68;1.55;;;11.90;99.90;;;;;;4994631;28;20033;-74
2022/09/13 00:13:05;;;;;;;17.83;1.73;;;11.90;99.90;;;;;;4994834;28;20044;-73
2022/09/13 00:15:31;;;;;;;11.57;1.70;;;11.90;99.90;;;;;;4994671;28;20036;-74
2022/09/13 00:17:57;;;;;;;9.30;1.80;;;11.90;99.90;;;;;;4994816;28;20467;-73
2022/09/13 00:20:22;;;;;;;5.50;1.33;;;11.80;99.90;;;;;;4994518;28;20030;-74
2022/09/13 00:22:48;;;;;;;11.90;1.58;;;11.80;99.90;;;;;;4994432;28;20060;-74
2022/09/13 00:25:14;;;;;;;6.20;1.55;;;11.80;99.90;;;;;;4994381;28;20108;-73
2022/09/13 00:27:40;;;;;;;4.15;1.88;;;11.70;99.90;;;;;;4994260;28;20041;-73
2022/09/13 00:30:07;;;;;;;7.20;1.70;;;11.70;99.90;;;;;;4994342;28;20526;-73
2022/09/13 00:32:34;;;;;;;7.25;1.70;;;11.70;99.90;;;;;;4994543;28;20473;-74
2022/09/13 00:35:01;;;;;;;10.82;2.22;;;11.70;99.90;;;;;;4994926;28;20030;-74
2022/09/13 00:37:26;;;;;;;6.47;2.15;;;11.70;99.90;;;;;;4993775;28;20085;-74
2022/09/13 00:39:52;;;;;;;6.20;2.60;;;11.60;99.90;;;;;;4977138;28;20061;-73
2022/09/13 00:42:23;;;;;;;6.05;2.70;;;11.50;99.90;;;;;;4994560;28;20121;-74
2022/09/13 00:45:02;;;;;;;21.88;3.08;;;11.50;99.90;;;;;;4994511;28;20026;-74
2022/09/13 00:47:34;;;;;;;4.18;2.80;;;11.40;99.90;;;;;;4994420;28;20092;-74
2022/09/13 00:50:18;;;;;;;6.40;2.60;;;11.40;99.90;;;;;;4992815;28;20493;-74
2022/09/13 00:52:48;;;;;;;7.95;2.78;;;11.30;99.90;;;;;;4994649;28;20034;-72
2022/09/13 00:55:19;;;;;;;;;;;11.30;99.90;;;;;;4994912;28;20058;-72
2022/09/13 00:57:45;;;;;;;9.18;3.35;;;11.30;99.90;;;;;;4993788;28;20208;-72
2022/09/13 01:00:15;;;;;;;8.65;2.33;;;11.20;99.90;;;;;;4976357;28;20128;-73
2022/09/13 01:02:45;;;;;;;6.38;2.55;;;11.20;99.90;;;;;;4993485;28;20041;-73
2022/09/13 01:05:13;;;;;;;13.15;2.80;;;11.20;99.90;;;;;;4993992;28;20615;-73
2022/09/13 01:07:39;;;;;;;7.43;2.50;;;11.10;99.90;;;;;;4994055;28;20046;-74
2022/09/13 01:10:06;;;;;;;13.45;3.78;;;11.10;99.90;;;;;;4994088;28;20072;-74
2022/09/13 01:12:55;;;;;;;8.15;2.70;;;11.10;99.90;;;;;;4976703;28;20042;-75
2022/09/13 01:15:21;;;;;;;9.82;3.50;;;11.10;99.90;;;;;;4976798;28;20065;-74
2022/09/13 01:17:48;;;;;;;6.20;2.70;;;11.00;99.90;;;;;;4994046;28;20030;-72
2022/09/13 01:20:14;;;;;;;11.30;2.90;;;11.00;99.90;;;;;;4993550;28;20282;-74
2022/09/13 01:23:11;;;;;;;9.23;3.00;;;11.00;99.90;;;;;;4994124;28;20058;-73
2022/09/13 01:25:56;;;;;;;13.98;3.25;;;11.00;99.90;;;;;;4979862;28;20049;-74
2022/09/13 01:28:52;;;;;;;5.43;2.72;;;11.00;99.90;;;;;;4993524;28;20027;-73
2022/09/13 01:31:29;;;;;;;9.43;2.83;;;11.00;99.90;;;;;;4992750;28;20034;-72
2022/09/13 01:34:56;;;;;;;4.47;2.22;;;11.00;99.90;;;;;;4993249;28;20031;-73
2022/09/13 01:37:36;;;;;;;7.85;2.42;;;10.90;99.90;;;;;;4949147;29;20113;-72
2022/09/13 01:40:26;;;;;;;6.57;2.40;;;10.90;99.90;;;;;;4936158;29;20106;-73
2022/09/13 01:43:21;;;;;;;9.00;2.67;;;10.80;99.90;;;;;;4952348;29;20042;-73
2022/09/13 01:46:05;;;;;;;4.40;3.17;;;10.80;99.90;;;;;;4952136;29;20562;-72
2022/09/13 01:49:11;;;;;;;5.60;2.80;;;10.80;99.90;;;;;;4952158;29;20051;-72
2022/09/13 01:51:47;;;;;;;8.75;3.03;;;10.70;99.90;;;;;;4951196;29;20102;-72
2022/09/13 01:54:34;;;;;;;8.85;3.20;;;10.70;99.90;;;;;;4951821;29;20024;-73
2022/09/13 01:57:15;;;;;;;12.98;4.20;;;10.70;99.90;;;;;;4952341;29;20043;-73
2022/09/13 01:59:41;;;;;;;;;;;10.70;99.90;;;;;;4951629;28;20042;-73
2022/09/13 02:02:35;;;;;;;8.90;3.72;;;10.70;99.90;;;;;;4952473;29;19907;-74
2022/09/13 02:05:25;;;;;;;16.30;4.05;;;10.60;99.90;;;;;;4895687;29;20047;-73
2022/09/13 02:07:58;;;;;;;7.63;4.05;;;10.60;99.90;;;;;;4895623;29;20052;-73
2022/09/13 02:10:35;;;;;;;13.43;4.20;;;10.60;99.90;;;;;;4894981;29;20135;-72
2022/09/13 02:13:06;;;;;;;12.23;4.47;;;10.60;99.90;;;;;;4895490;29;20029;-73
2022/09/13 02:15:38;;;;;;;12.30;4.68;;;10.50;99.90;;;;;;4894659;29;20482;-73
2022/09/13 02:18:09;;;;;;;12.65;4.50;;;10.50;99.90;;;;;;4894739;29;20081;-73
2022/09/13 02:20:41;;;;;;;9.98;4.68;;;10.50;99.90;;;;;;4880682;29;20068;-73
2022/09/13 02:23:15;;;;;;;8.23;4.35;;;10.50;99.90;;;;;;4895905;29;20048;-73
2022/09/13 02:25:44;;;;;;;15.10;5.50;;;10.40;99.90;;;;;;4895773;29;20115;-74
2022/09/13 02:28:13;;;;;;;13.48;4.93;;;10.40;99.90;;;;;;4894309;29;20161;-73
2022/09/13 02:30:44;;;;;;;12.25;5.03;;;10.40;99.90;;;;;;4894882;29;20037;-74
2022/09/13 02:33:32;;;;;;;12.65;5.13;;;10.30;99.90;;;;;;4879281;29;20033;-74
2022/09/13 02:36:05;;;;;;;15.25;5.43;;;10.30;99.90;;;;;;4894548;29;20173;-73
2022/09/13 02:38:32;;;;;;;11.52;5.82;;;10.20;99.90;;;;;;4895130;29;20029;-74
2022/09/13 02:41:27;;;;;;;14.35;6.10;;;10.20;99.90;;;;;;4904989;28;20041;-73
2022/09/13 02:44:01;;;;;;;9.38;5.57;;;10.20;99.90;;;;;;4977231;28;20045;-74
2022/09/13 02:46:32;;;;;;;12.10;6.90;;;10.10;99.90;;;;;;4993259;28;20534;-74
2022/09/13 02:49:10;;;;;;;15.52;6.20;;;10.10;99.90;;;;;;4992909;28;20026;-73
2022/09/13 02:51:51;;;;;;;11.05;5.53;;;10.10;99.90;;;;;;4993246;28;20027;-74
2022/09/13 02:54:26;;;;;;;12.23;5.50;;;10.10;99.90;;;;;;4993057;28;20367;-71
2022/09/13 02:57:09;;;;;;;12.85;6.32;;;10.00;99.90;;;;;;4992547;28;20035;-73
2022/09/13 02:59:35;;;;;;;15.63;6.53;;;9.90;99.90;;;;;;4993474;28;20034;-71
2022/09/13 03:02:09;;;;;;;22.10;6.25;;;9.90;99.90;;;;;;4992979;28;20022;-73
2022/09/13 03:04:35;;;;;;;13.98;7.03;;;9.90;99.90;;;;;;4991882;28;20050;-72
2022/09/13 03:07:04;;;;;;;10.88;6.55;;;9.90;99.90;;;;;;4992613;28;20120;-72
2022/09/13 03:09:31;;;;;;;15.15;6.30;;;9.90;99.90;;;;;;4974597;28;20403;-73
2022/09/13 03:12:34;;;;;;;16.38;6.53;;;9.80;99.90;;;;;;4992661;28;20026;-73
2022/09/13 03:15:18;;;;;;;15.32;6.68;;;9.90;99.90;;;;;;4996723;28;20030;-72
2022/09/13 03:17:59;;;;;;;13.93;5.60;;;9.90;99.90;;;;;;4996708;28;20034;-72
2022/09/13 03:21:01;;;;;;;21.73;6.07;;;9.80;99.90;;;;;;4996715;28;20410;-74
2022/09/13 03:24:04;;;;;;;16.17;5.53;;;9.70;99.90;;;;;;4996201;28;20540;-73
2022/09/13 03:26:44;;;;;;;12.77;6.07;;;9.70;99.90;;;;;;4995893;28;20034;-73
2022/09/13 03:29:34;;;;;;;16.08;6.00;;;9.70;99.90;;;;;;4995458;28;20038;-72
2022/09/13 03:32:41;;;;;;;9.63;5.93;;;9.70;99.90;;;;;;4995745;28;20491;-73
2022/09/13 03:35:14;;;;;;;12.23;5.95;;;9.70;99.90;;;;;;4990207;28;20074;-72
2022/09/13 03:38:09;;;;;;;11.25;5.40;;;9.60;99.90;;;;;;4976862;28;20042;-71
2022/09/13 03:40:48;;;;;;;9.07;5.43;;;9.60;99.90;;;;;;4976325;28;20034;-73
2022/09/13 03:43:25;;;;;;;12.88;5.35;;;9.50;99.90;;;;;;4976458;28;20031;-71
2022/09/13 03:46:02;;;;;;;9.90;5.20;;;9.50;99.90;;;;;;4976663;28;20034;-73
2022/09/13 03:48:30;;;;;;;10.07;5.07;;;9.50;99.90;;;;;;4976445;28;20035;-72
2022/09/13 03:50:56;;;;;;;12.18;5.25;;;9.40;99.90;;;;;;4976978;28;20055;-72
2022/09/13 03:53:27;;;;;;;6.85;4.57;;;9.40;99.90;;;;;;4976521;28;20512;-72
2022/09/13 03:55:53;;;;;;;20.73;4.80;;;9.40;99.90;;;;;;4977029;28;20093;-72
2022/09/13 03:58:20;;;;;;;19.85;4.25;;;9.20;99.90;;;;;;4975725;28;20054;-72
2022/09/13 04:00:47;;;;;;;9.98;5.45;;;9.20;99.90;;;;;;4975707;28;20075;-72
2022/09/13 04:03:13;;;;;;;8.85;5.22;;;9.10;99.90;;;;;;4976375;28;20066;-71
2022/09/13 04:05:39;;;;;;;9.10;4.57;;;9.10;99.90;;;;;;4975920;28;20031;-72
2022/09/13 04:08:06;;;;;;;6.05;4.45;;;9.00;99.90;;;;;;4975751;28;20030;-72
2022/09/13 04:10:33;;;;;;;10.60;4.82;;;9.00;99.90;;;;;;4975935;28;20390;-73
2022/09/13 04:13:00;;;;;;;8.70;4.50;;;8.90;99.90;;;;;;4976336;28;20059;-72
2022/09/13 04:15:26;;;;;;;10.65;4.45;;;8.90;99.90;;;;;;4958547;28;20434;-71
2022/09/13 04:17:52;;;;;;;10.52;5.18;;;8.90;99.90;;;;;;4976022;28;20448;-71
2022/09/13 04:20:19;;;;;;;8.30;4.78;;;8.90;99.90;;;;;;4975989;28;20054;-72
2022/09/13 04:22:53;;;;;;;11.10;5.95;;;8.80;99.90;;;;;;4975551;28;20026;-72
2022/09/13 04:25:20;;;;;;;7.15;4.70;;;8.80;99.90;;;;;;4958438;28;20382;-72
2022/09/13 04:27:45;;;;;;;9.23;4.93;;;8.70;99.90;;;;;;4975498;28;20395;-72
2022/09/13 04:30:12;;;;;;;12.95;4.70;;;8.70;99.90;;;;;;4975577;28;20030;-72
2022/09/13 04:32:38;;;;;;;8.57;4.85;;;8.70;99.90;;;;;;4974945;28;20023;-72
2022/09/13 04:35:05;;;;;;;10.32;4.75;;;8.70;99.90;;;;;;4975331;28;20065;-71
2022/09/13 04:37:31;;;;;;;8.18;4.00;;;8.60;99.90;;;;;;4957247;28;20070;-71
2022/09/13 04:39:57;;;;;;;8.27;4.45;;;8.60;99.90;;;;;;4974704;28;20030;-73
2022/09/13 04:42:23;;;;;;;11.98;4.60;;;8.50;99.90;;;;;;4957940;28;20053;-72
2022/09/13 04:44:49;;;;;;;8.07;4.68;;;8.50;99.90;;;;;;4974608;28;20031;-74
2022/09/13 04:47:15;;;;;;;7.25;3.88;;;8.50;99.90;;;;;;4956857;28;20043;-73
2022/09/13 04:49:41;;;;;;;10.70;5.30;;;8.50;99.90;;;;;;4974778;28;20030;-72
2022/09/13 04:52:06;;;;;;;6.65;4.60;;;8.40;99.90;;;;;;4975039;28;20030;-72
2022/09/13 04:54:32;;;;;;;8.82;5.05;;;8.40;99.90;;;;;;4974763;28;20368;-70
2022/09/13 04:56:58;;;;;;;10.07;4.25;;;8.40;99.90;;;;;;4975297;28;20065;-71
2022/09/13 04:59:23;;;;;;;7.32;4.00;;;8.30;99.90;;;;;;4973404;28;20034;-73
2022/09/13 05:01:49;;;;;;;113.47;4.30;;;8.20;99.90;;;;;;4974970;28;20431;-70
2022/09/13 05:04:15;;;;;;;16.23;2.60;;;8.20;99.90;;;;;;4974932;28;20037;-72
2022/09/13 05:06:41;;;;;;;5.43;2.88;;;8.10;99.90;;;;;;4974560;28;20039;-73
2022/09/13 05:09:06;;;;;;;3.15;2.13;;;8.10;99.90;;;;;;4975218;28;20463;-71
2022/09/13 05:11:32;;;;;;;4.70;2.63;;;8.00;99.90;;;;;;4974796;28;20039;-72
2022/09/13 05:13:59;;;;;;;6.75;4.55;;;8.00;99.90;;;;;;4975341;28;20431;-71
2022/09/13 05:16:28;;;;;;;8.00;5.60;;;8.00;99.90;;;;;;4974613;28;20153;-71
2022/09/13 05:18:54;;;;;;;10.38;4.45;;;8.00;99.90;;;;;;4974687;28;20037;-72
2022/09/13 05:21:20;;;;;;;14.93;5.13;;;8.10;99.90;;;;;;4988993;28;20022;-72
2022/09/13 05:23:51;;;;;;;15.57;5.72;;;8.10;99.90;;;;;;4993082;28;20106;-71
2022/09/13 05:26:17;;;;;;;16.35;6.28;;;8.10;99.90;;;;;;4993191;28;20041;-71
2022/09/13 05:28:43;;;;;;;16.10;7.03;;;8.20;99.90;;;;;;4992716;28;20026;-72
2022/09/13 05:31:27;;;;;;;15.65;6.93;;;8.20;99.90;;;;;;4974817;28;20386;-72
2022/09/13 05:34:15;;;;;;;34.70;3.92;;;8.20;99.90;;;;;;4988112;28;20057;-72
2022/09/13 05:36:41;;;;;;;7.68;3.25;;;8.20;99.90;;;;;;4993314;28;20049;-72
2022/09/13 05:39:12;;;;;;;13.48;3.60;;;8.10;99.90;;;;;;4975914;28;20022;-72
2022/09/13 05:41:38;;;;;;;16.80;3.38;;;8.10;99.90;;;;;;4993055;28;20022;-74
2022/09/13 05:44:03;;;;;;;16.08;3.25;;;8.00;99.90;;;;;;4994123;28;20038;-72
2022/09/13 05:46:29;;;;;;;33.20;4.57;;;8.00;99.90;;;;;;4992327;28;20062;-72
2022/09/13 05:48:58;;;;;;;91.45;6.70;;;8.00;99.90;;;;;;4992171;28;20085;-74
2022/09/13 05:51:24;;;;;;;30.55;5.05;;;7.90;99.90;;;;;;4989642;28;20046;-73
2022/09/13 05:53:51;;;;;;;25.92;4.75;;;7.90;99.90;;;;;;4991568;28;20022;-72
2022/09/13 05:56:26;;;;;;;18.45;5.40;;;7.90;99.90;;;;;;4992380;28;20459;-74
2022/09/13 05:58:53;;;;;;;10.77;4.72;;;8.00;99.90;;;;;;4990587;28;20036;-72
2022/09/13 06:01:24;;;;;;;13.25;4.88;;;8.00;99.90;;;;;;4991904;28;20046;-72
2022/09/13 06:03:51;;;;;;;51.78;5.13;;;8.00;99.90;;;;;;4990079;28;20117;-73
2022/09/13 06:06:18;;;;;;;35.22;5.28;;;8.00;99.90;;;;;;4990581;28;20034;-73
2022/09/13 06:08:45;;;;;;;31.10;5.78;;;8.00;99.90;;;;;;4991581;28;20049;-73
2022/09/13 06:11:12;;;;;;;27.38;5.55;;;8.00;99.90;;;;;;4988875;28;20034;-73
2022/09/13 06:13:38;;;;;;;20.20;5.50;;;8.00;99.90;;;;;;4991698;28;20029;-71
2022/09/13 06:16:06;;;;;;;55.08;6.13;;;8.00;99.90;;;;;;4991640;28;20034;-72
2022/09/13 06:18:33;;;;;;;70.15;4.18;;;8.10;99.90;;;;;;4989381;28;20022;-73
2022/09/13 06:21:07;;;;;;;72.80;4.93;;;8.10;99.90;;;;;;4991330;28;20077;-73
2022/09/13 06:23:34;;;;;;;43.25;4.50;;;8.10;99.90;;;;;;4988852;28;20390;-73
2022/09/13 06:26:12;;;;;;;37.22;4.60;;;8.10;99.90;;;;;;4991460;28;20039;-71
2022/09/13 06:28:38;;;;;;;23.23;4.88;;;8.20;99.90;;;;;;4989811;28;20521;-73
2022/09/13 06:31:09;;;;;;;15.60;3.95;;;8.20;99.90;;;;;;4990835;28;20038;-71
2022/09/13 06:33:37;;;;;;;14.00;4.97;;;8.20;99.90;;;;;;4989653;28;20034;-73
2022/09/13 06:36:05;;;;;;;42.75;4.10;;;8.20;99.90;;;;;;4992484;28;20054;-72
2022/09/13 06:38:30;;;;;;;74.38;4.22;;;8.20;99.90;;;;;;4992446;28;20026;-72
2022/09/13 06:41:00;;;;;;;42.75;5.70;;;8.20;99.90;;;;;;4992139;28;20036;-72
2022/09/13 06:43:26;;;;;;;12.35;4.30;;;8.20;99.90;;;;;;4991168;28;20022;-73
2022/09/13 06:45:52;;;;;;;42.30;4.25;;;8.20;99.90;;;;;;4974374;28;20437;-73
2022/09/13 06:48:18;;;;;;;31.17;4.63;;;8.30;99.90;;;;;;4992597;28;20073;-72
2022/09/13 06:50:44;;;;;;;10.95;4.28;;;8.30;99.90;;;;;;4994998;28;20030;-73
2022/09/13 06:53:10;;;;;;;199.70;9.27;;;8.40;99.90;;;;;;4995282;28;20026;-72
2022/09/13 06:55:35;;;;;;;20.45;4.40;;;8.40;99.90;;;;;;4992598;28;20026;-74
2022/09/13 06:58:01;;;;;;;33.70;4.40;;;8.40;99.90;;;;;;4994461;28;20030;-72
2022/09/13 07:00:27;;;;;;;31.27;4.55;;;8.50;99.90;;;;;;4994588;28;20073;-73
2022/09/13 07:02:52;;;;;;;13.00;3.67;;;8.50;99.90;;;;;;4976809;28;20092;-73
2022/09/13 07:05:19;;;;;;;6.93;3.70;;;8.50;99.90;;;;;;4994765;28;20030;-73
2022/09/13 07:07:45;;;;;;;6.75;3.75;;;8.50;99.90;;;;;;4996328;28;20034;-71
2022/09/13 07:10:11;;;;;;;6.32;3.33;;;8.50;99.90;;;;;;4978876;28;20031;-71
2022/09/13 07:12:38;;;;;;;19.77;4.13;;;8.60;99.90;;;;;;4996246;28;20026;-72
2022/09/13 07:15:04;;;;;;;5.80;3.60;;;8.60;99.90;;;;;;4996220;28;20486;-72
2022/09/13 07:17:30;;;;;;;6.90;3.25;;;8.70;99.90;;;;;;4995722;28;20057;-72
2022/09/13 07:19:56;;;;;;;9.85;3.58;;;8.70;99.90;;;;;;4994630;28;20062;-73
2022/09/13 07:22:25;;;;;;;9.50;3.58;;;8.70;99.90;;;;;;4994191;28;20026;-73
2022/09/13 07:24:51;;;;;;;5.00;3.50;;;8.70;99.90;;;;;;4994758;28;20536;-73
2022/09/13 07:27:17;;;;;;;9.10;3.15;;;8.80;99.90;;;;;;4994738;28;20030;-71
2022/09/13 07:29:43;;;;;;;9.07;3.63;;;8.80;99.90;;;;;;4995558;28;20374;-71
2022/09/13 07:32:08;;;;;;;11.00;4.15;;;8.90;99.90;;;;;;4995452;28;20033;-73
2022/09/13 07:34:34;;;;;;;51.85;4.57;;;9.00;99.90;;;;;;4994853;28;20116;-73
2022/09/13 07:37:01;;;;;;;7.95;3.58;;;9.10;99.90;;;;;;4977491;28;20145;-73
2022/09/13 07:39:26;;;;;;;5.47;2.90;;;9.20;99.90;;;;;;4995122;28;20023;-73
2022/09/13 07:41:52;;;;;;;16.33;3.40;;;9.20;99.90;;;;;;4994822;28;20037;-73
2022/09/13 07:44:18;;;;;;;7.05;3.45;;;9.30;99.90;;;;;;4994848;28;20073;-72
2022/09/13 07:46:44;;;;;;;9.68;3.45;;;9.40;99.90;;;;;;4994392;28;20045;-73
2022/09/13 07:49:12;;;;;;;29.02;5.78;;;9.50;99.90;;;;;;4977206;28;20121;-74
2022/09/13 07:51:40;;;;;;;13.32;4.03;;;9.60;99.90;;;;;;4994579;28;20022;-74
2022/09/13 07:54:10;;;;;;;12.00;4.60;;;9.60;99.90;;;;;;4994770;28;20371;-73
2022/09/13 07:56:38;;;;;;;8.88;5.05;;;9.70;99.90;;;;;;4994146;28;20035;-73
2022/09/13 07:59:06;;;;;;;7.50;4.30;;;9.80;99.90;;;;;;4960609;28;20094;-71
2022/09/13 08:01:40;;;;;;;9.85;4.45;;;9.80;99.90;;;;;;4985395;28;20033;-71
2022/09/13 08:04:16;;;;;;;6.40;3.78;;;9.90;99.90;;;;;;4985825;28;20125;-71
2022/09/13 08:06:45;;;;;;;7.07;4.50;;;10.00;99.90;;;;;;4990956;28;20045;-72
2022/09/13 08:09:12;;;;;;;11.07;4.63;;;10.10;99.90;;;;;;4993986;28;20390;-72
2022/09/13 08:11:44;;;;;;;6.32;3.92;;;10.20;99.90;;;;;;4993639;28;20022;-72
2022/09/13 08:14:14;;;;;;;10.48;4.65;;;10.20;99.90;;;;;;4994180;28;20030;-72
2022/09/13 08:16:40;;;;;;;6.28;3.72;;;10.40;99.90;;;;;;4993908;28;20419;-72
2022/09/13 08:19:07;;;;;;;6.80;3.08;;;10.50;99.90;;;;;;4994030;28;20142;-72
2022/09/13 08:21:36;;;;;;;6.07;2.70;;;10.60;99.90;;;;;;4993475;28;20384;-72
2022/09/13 08:24:03;;;;;;;5.07;2.78;;;10.70;99.90;;;;;;4993054;28;20022;-73
2022/09/13 08:26:31;;;;;;;5.68;2.00;;;10.90;99.90;;;;;;4992785;28;20054;-72
2022/09/13 08:28:59;;;;;;;3.40;1.90;;;11.00;99.90;;;;;;4991666;28;20130;-72
2022/09/13 08:31:24;;;;;;;10.35;3.95;;;11.10;99.90;;;;;;4993545;28;20033;-72
2022/09/13 08:33:51;;;;;;;7.70;3.42;;;11.20;99.90;;;;;;4992325;28;20026;-72
2022/09/13 08:36:17;;;;;;;5.75;3.17;;;11.30;99.90;;;;;;4994268;28;20062;-70
2022/09/13 08:38:51;;;;;;;12.43;3.17;;;11.40;99.90;;;;;;4994007;28;20026;-71
2022/09/13 08:41:43;;;;;;;6.60;3.65;;;11.60;99.90;;;;;;4993750;28;20117;-72
2022/09/13 08:44:29;;;;;;;6.50;2.90;;;11.70;99.90;;;;;;4975631;28;20026;-70
2022/09/13 08:47:37;;;;;;;6.60;2.80;;;11.70;99.90;;;;;;4992571;28;20038;-71
2022/09/13 08:50:27;;;;;;;8.80;3.05;;;11.80;99.90;;;;;;4989331;28;20046;-70
2022/09/13 08:53:23;;;;;;;3.70;2.50;;;11.90;99.90;;;;;;4981982;28;20447;-71
2022/09/13 08:56:04;;;;;;;6.45;3.40;;;12.00;99.90;;;;;;4972010;28;20038;-73
2022/09/13 08:58:52;;;;;;;5.47;2.85;;;12.10;99.90;;;;;;5008997;28;20030;-72
2022/09/13 09:01:32;;;;;;;7.28;2.90;;;12.30;99.90;;;;;;5012932;28;20033;-72
2022/09/13 09:04:26;;;;;;;11.60;2.58;;;12.40;99.90;;;;;;5012036;28;20111;-72
2022/09/13 09:07:12;;;;;;;10.32;3.05;;;12.50;99.90;;;;;;5012866;28;20033;-74
2022/09/13 09:10:04;;;;;;;9.95;3.10;;;12.70;99.90;;;;;;5011721;28;20026;-71
2022/09/13 09:12:48;;;;;;;7.18;3.10;;;12.80;99.90;;;;;;5003122;28;20037;-71
2022/09/13 09:15:22;;;;;;;5.45;2.22;;;13.00;99.90;;;;;;4996573;28;20088;-71
2022/09/13 09:18:12;;;;;;;8.63;2.35;;;13.10;99.90;;;;;;4992359;28;20245;-71
2022/09/13 09:20:45;;;;;;;7.90;1.50;;;13.30;99.90;;;;;;4990701;28;20019;-71
2022/09/13 09:23:20;;;;;;;4.13;1.45;;;13.40;99.90;;;;;;4989549;28;20026;-73
2022/09/13 09:25:47;;;;;;;11.05;1.92;;;13.50;99.90;;;;;;4991942;28;20023;-72
2022/09/13 09:28:16;;;;;;;9.98;1.83;;;13.60;99.90;;;;;;4993015;28;20109;-72
2022/09/13 09:30:54;;;;;;;4.15;1.23;;;13.70;99.90;;;;;;4993399;28;20030;-71
2022/09/13 09:33:22;;;;;;;4.57;1.50;;;13.90;99.90;;;;;;4992550;28;20513;-70
2022/09/13 09:36:00;;;;;;;4.28;1.20;;;14.10;99.90;;;;;;4992911;28;20046;-71
2022/09/13 09:38:40;;;;;;;6.80;1.58;;;14.20;99.90;;;;;;4992849;28;20030;-72
2022/09/13 09:41:33;;;;;;;8.90;1.67;;;14.40;99.90;;;;;;4992664;28;20118;-71
2022/09/13 09:44:16;;;;;;;5.53;1.58;;;14.60;99.90;;;;;;4973231;28;20030;-71
2022/09/13 09:46:42;;;;;;;6.30;1.40;;;14.80;99.90;;;;;;4992759;28;20034;-72
2022/09/13 09:52:21;;;;;;;5.13;1.05;;;15.20;99.90;;;;;;4990429;28;20117;-72
2022/09/13 09:54:49;;;;;;;6.85;1.23;;;15.30;99.90;;;;;;4993007;28;20114;-72
2022/09/13 09:57:17;;;;;;;3.60;1.40;;;15.40;99.90;;;;;;4995564;28;20076;-70
2022/09/13 09:59:43;;;;;;;3.63;1.27;;;15.50;99.90;;;;;;4992401;28;20053;-71
2022/09/13 10:02:17;;;;;;;6.47;1.55;;;15.70;99.90;;;;;;4972739;28;20042;-70
2022/09/13 10:04:54;;;;;;;5.13;1.23;;;15.80;99.90;;;;;;4992542;28;20061;-73
2022/09/13 10:07:25;;;;;;;5.45;1.35;;;15.80;99.90;;;;;;4992488;28;20038;-71
2022/09/13 10:10:05;;;;;;;5.47;1.27;;;15.80;99.90;;;;;;4992315;28;20405;-72
2022/09/13 10:12:34;;;;;;;7.25;0.85;;;15.90;99.90;;;;;;4991830;28;20053;-70
2022/09/13 10:15:20;;;;;;;2.55;1.02;;;16.00;99.90;;;;;;4975372;28;20030;-70
2022/09/13 10:18:14;;;;;;;5.68;1.10;;;16.20;99.90;;;;;;4992410;28;20443;-70
2022/09/13 10:20:41;;;;;;;4.68;0.93;;;16.50;99.90;;;;;;4974105;28;20479;-71
2022/09/13 10:23:13;;;;;;;4.95;0.80;;;16.80;99.90;;;;;;4991608;28;20062;-70
2022/09/13 10:25:39;;;;;;;4.15;0.85;;;17.10;99.90;;;;;;4974630;28;20034;-74
2022/09/13 10:28:16;;;;;;;4.82;0.90;;;17.30;99.90;;;;;;4974821;28;20038;-73
2022/09/13 10:31:08;;;;;;;4.57;0.85;;;17.50;99.90;;;;;;4973185;28;20558;-71
2022/09/13 10:33:59;;;;;;;7.25;2.38;;;17.60;99.90;;;;;;4964090;28;20089;-70
2022/09/13 10:36:30;;;;;;;2.80;0.63;;;17.80;99.90;;;;;;4964187;28;20049;-72
2022/09/13 10:39:18;;;;;;;9.82;1.30;;;17.90;99.90;;;;;;4992534;28;20022;-70
2022/09/13 10:41:57;;;;;;;6.25;0.60;;;18.10;99.90;;;;;;4991111;28;20041;-70
2022/09/13 10:44:37;;;;;;;4.72;0.85;;;18.00;99.90;;;;;;4974733;28;20073;-70
2022/09/13 10:47:09;;;;;;;3.47;1.02;;;18.10;99.90;;;;;;4991533;28;20500;-70
2022/09/13 10:49:45;;;;;;;4.30;0.90;;;18.20;99.90;;;;;;4973885;28;20030;-70
2022/09/13 10:52:26;;;;;;;5.03;0.80;;;18.20;99.90;;;;;;4992033;28;20026;-72
2022/09/13 10:54:52;;;;;;;2.17;0.60;;;18.30;99.90;;;;;;4992269;28;20097;-71
2022/09/13 10:57:36;;;;;;;2.72;0.80;;;18.40;99.90;;;;;;4997745;28;20386;-71
2022/09/13 11:00:08;;;;;;;2.45;0.90;;;18.60;99.90;;;;;;4995596;28;20031;-71
2022/09/13 11:02:52;;;;;;;2.35;0.77;;;18.60;99.90;;;;;;4972188;28;20031;-70
2022/09/13 11:05:44;;;;;;;4.15;0.85;;;18.70;99.90;;;;;;4989664;28;20023;-72
2022/09/13 11:08:39;;;;;;;2.30;0.60;;;18.70;99.90;;;;;;4991523;28;20034;-70
2022/09/13 11:11:39;;;;;;;5.05;1.17;;;18.70;99.90;;;;;;4990202;28;20117;-71
2022/09/13 11:14:46;;;;;;;2.35;0.60;;;18.80;99.90;;;;;;4990664;28;20109;-70
2022/09/13 11:17:21;;;;;;;2.92;0.63;;;18.90;99.90;;;;;;4990521;28;20057;-72
2022/09/13 11:20:08;;;;;;;6.38;0.80;;;19.00;99.80;;;;;;4991374;28;20029;-70
2022/09/13 11:23:06;;;;;;;3.63;1.10;;;19.20;99.30;;;;;;4991746;28;20403;-70
2022/09/13 11:26:00;;;;;;;3.38;0.73;;;19.30;98.60;;;;;;4991648;28;20463;-72
2022/09/13 11:28:52;;;;;;;3.25;0.70;;;19.40;97.80;;;;;;4990377;28;20038;-70
2022/09/13 11:31:44;;;;;;;2.70;1.00;;;19.50;97.30;;;;;;4973903;28;20117;-71
2022/09/13 11:34:16;;;;;;;2.63;1.00;;;19.60;97.00;;;;;;4987473;28;20439;-73
2022/09/13 11:36:55;;;;;;;7.13;0.88;;;20.00;96.60;;;;;;4992445;28;20046;-70
2022/09/13 11:39:40;;;;;;;4.13;0.90;;;20.20;95.90;;;;;;4994706;28;20030;-70
2022/09/13 11:42:40;;;;;;;5.63;0.93;;;20.50;94.90;;;;;;4994346;28;20070;-70
2022/09/13 11:45:20;;;;;;;1.65;0.50;;;20.90;94.20;;;;;;4993629;28;20026;-69
2022/09/13 11:48:19;;;;;;;2.70;0.77;;;21.10;92.50;;;;;;4994991;28;20026;-69
2022/09/13 11:51:03;;;;;;;5.78;0.75;;;21.10;91.50;;;;;;4993309;28;20034;-70
2022/09/13 11:53:57;;;;;;;6.80;0.77;;;21.00;91.20;;;;;;4975357;28;20061;-71
2022/09/13 11:56:33;;;;;;;3.78;0.60;;;20.90;91.20;;;;;;4989301;28;20026;-69
2022/09/13 11:59:26;;;;;;;3.33;0.43;;;20.80;91.10;;;;;;4992084;28;20102;-70
2022/09/13 12:02:00;;;;;;;12.45;1.60;;;20.80;91.00;;;;;;4991878;28;20026;-72
2022/09/13 12:04:42;;;;;;;4.10;0.68;;;20.90;90.90;;;;;;4974107;28;20049;-72
2022/09/13 12:07:23;;;;;;;2.42;0.70;;;21.00;90.40;;;;;;4994078;28;20042;-70
2022/09/13 12:10:01;;;;;;;3.47;0.70;;;21.20;90.20;;;;;;4994592;28;20058;-68
2022/09/13 12:12:32;;;;;;;3.20;0.47;;;21.50;89.60;;;;;;4994818;28;20026;-68
2022/09/13 12:15:06;;;;;;;5.10;0.85;;;21.60;88.70;;;;;;4994149;28;20072;-69
2022/09/13 12:17:44;;;;;;;5.05;0.82;;;21.80;88.20;;;;;;4980554;28;20031;-68
2022/09/13 12:20:28;;;;;;;3.83;0.82;;;21.90;86.10;;;;;;4975057;28;20033;-69
2022/09/13 12:22:56;;;;;;;4.05;0.80;;;22.20;85.30;;;;;;4974999;28;20031;-70
2022/09/13 12:25:29;;;;;;;3.40;0.80;;;22.50;84.30;;;;;;4974933;28;20035;-70
2022/09/13 12:28:22;;;;;;;2.88;0.80;;;22.60;82.40;;;;;;4975426;28;20174;-70
2022/09/13 12:30:54;;;;;;;2.83;0.73;;;22.70;81.20;;;;;;4993369;28;20045;-68
2022/09/13 12:33:20;;;;;;;1.38;0.55;;;22.80;81.10;;;;;;4993827;28;20029;-71
2022/09/13 12:35:52;;;;;;;1.85;0.50;;;22.80;80.20;;;;;;4991469;28;20386;-71
2022/09/13 12:38:33;;;;;;;1.83;0.55;;;22.80;79.50;;;;;;4992016;28;20392;-70
2022/09/13 12:41:10;;;;;;;2.72;1.02;;;22.90;79.10;;;;;;4993325;28;20117;-69
2022/09/13 12:44:18;;;;;;;2.85;0.70;;;23.20;78.20;;;;;;4974525;28;20368;-70
2022/09/13 12:47:21;;;;;;;2.10;0.60;;;23.40;77.50;;;;;;4989428;28;20475;-71
2022/09/13 12:50:11;;;;;;;2.67;0.70;;;23.80;76.90;;;;;;4989944;28;20031;-70
2022/09/13 12:53:05;;;;;;;1.58;0.40;;;24.00;75.20;;;;;;4991136;28;20383;-69
2022/09/13 12:56:10;;;;;;;2.58;0.68;;;24.30;74.00;;;;;;4991137;28;20030;-70
2022/09/13 12:58:57;;;;;;;3.05;0.70;;;24.50;72.70;;;;;;4963438;28;20112;-69
2022/09/13 13:01:29;;;;;;;3.58;1.27;;;24.60;72.20;;;;;;4989925;28;20037;-70
2022/09/13 13:04:00;;;;;;;3.63;0.60;;;24.70;71.90;;;;;;4972455;28;20035;-70
2022/09/13 13:06:46;;;;;;;3.08;0.60;;;24.80;71.40;;;;;;4992089;28;20042;-69
2022/09/13 13:09:29;;;;;;;2.15;0.60;;;24.80;70.80;;;;;;4989579;28;20042;-68
2022/09/13 13:11:57;;;;;;;5.55;0.63;;;24.80;70.60;;;;;;4990873;28;20372;-70
2022/09/13 13:14:28;;;;;;;2.47;0.82;;;24.80;70.30;;;;;;4989466;28;20533;-69
2022/09/13 13:17:14;;;;;;;1.80;0.60;;;24.70;69.80;;;;;;4991919;28;20046;-69
2022/09/13 13:19:40;;;;;;;2.28;0.95;;;24.50;70.10;;;;;;4973428;28;20046;-69
2022/09/13 13:22:43;;;;;;;2.47;0.65;;;24.40;70.50;;;;;;4992279;28;20058;-69
2022/09/13 13:25:38;;;;;;;2.42;0.52;;;24.30;69.80;;;;;;4993189;28;20034;-69
2022/09/13 13:28:49;;;;;;;3.25;0.80;;;24.40;70.30;;;;;;4992376;28;20042;-70
2022/09/13 13:31:22;;;;;;;;;;;24.40;69.90;;;;;;4988534;28;20134;-70